createdAt,value
2023-04-20T00:01:56.246Z,103609.20
2023-04-20T00:04:22.757Z,103609.40
2023-04-20T00:06:51.407Z,103613.80
2023-04-20T00:09:18.803Z,103613.60
2023-04-20T00:11:46.537Z,103615.00
2023-04-20T00:14:13.276Z,103613.20
2023-04-20T00:16:40.269Z,103616.60
2023-04-20T00:19:08.710Z,103614.40
2023-04-20T00:21:35.908Z,103618.80
2023-04-20T00:24:05.728Z,103618.80
2023-04-20T00:26:34.705Z,103618.20
2023-04-20T00:29:04.082Z,103619.80
2023-04-20T00:31:32.121Z,103621.60
2023-04-20T00:33:58.577Z,103621.60
2023-04-20T00:36:27.071Z,103617.40
2023-04-20T00:38:53.488Z,103617.80
2023-04-20T00:41:21.403Z,103617.40
2023-04-20T00:43:52.926Z,103617.40
2023-04-20T00:46:21.368Z,103618.20
2023-04-20T00:48:52.037Z,103621.60
2023-04-20T00:51:21.774Z,103621.80
2023-04-20T00:53:48.525Z,103617.80
2023-04-20T00:56:18.808Z,103619.80
2023-04-20T00:58:46.113Z,103623.20
2023-04-20T01:01:17.079Z,103617.80
2023-04-20T01:03:45.619Z,103622.80
2023-04-20T01:06:17.011Z,103623.80
2023-04-20T01:08:48.267Z,103623.00
2023-04-20T01:11:15.324Z,103621.40
2023-04-20T01:13:43.145Z,103622.80
2023-04-20T01:16:12.166Z,103625.40
2023-04-20T01:18:49.592Z,103625.20
2023-04-20T01:21:21.695Z,103626.40
2023-04-20T01:23:49.252Z,103625.00
2023-04-20T01:26:19.092Z,103623.60
2023-04-20T01:28:47.385Z,103623.40
2023-04-20T01:31:13.943Z,103619.80
2023-04-20T01:33:41.017Z,103617.00
2023-04-20T01:36:08.622Z,103620.80
2023-04-20T01:38:35.982Z,103615.60
2023-04-20T01:41:06.422Z,103619.20
2023-04-20T01:43:36.232Z,103621.80
2023-04-20T01:46:03.468Z,103624.00
2023-04-20T01:48:30.536Z,103623.00
2023-04-20T01:50:57.319Z,103625.60
2023-04-20T01:53:24.850Z,103630.60
2023-04-20T01:55:51.509Z,103625.80
2023-04-20T01:58:17.970Z,103623.40
2023-04-20T02:00:45.171Z,103626.00
2023-04-20T02:03:13.387Z,103633.20
2023-04-20T02:05:42.445Z,103627.60
2023-04-20T02:08:11.239Z,103626.80
2023-04-20T02:10:39.911Z,103626.60
2023-04-20T02:13:06.528Z,103626.20
2023-04-20T02:15:33.459Z,103625.40
2023-04-20T02:18:00.300Z,103623.40
2023-04-20T02:20:28.057Z,103623.80
2023-04-20T02:22:54.783Z,103623.00
2023-04-20T02:25:21.306Z,103625.00
2023-04-20T02:27:48.370Z,103618.20
2023-04-20T02:30:14.821Z,103625.00
2023-04-20T02:32:41.584Z,103617.80
2023-04-20T02:35:08.627Z,103617.40
2023-04-20T02:37:37.571Z,103618.60
2023-04-20T02:40:06.627Z,103612.00
2023-04-20T02:42:33.360Z,103614.80
2023-04-20T02:45:00.166Z,103610.60
2023-04-20T02:47:26.956Z,103613.80
2023-04-20T02:49:54.094Z,103617.20
2023-04-20T02:52:20.548Z,103615.20
2023-04-20T02:54:47.335Z,103617.80
2023-04-20T02:57:14.904Z,103614.00
2023-04-20T02:59:41.379Z,103613.40
2023-04-20T03:02:08.420Z,103615.60
2023-04-20T03:04:36.176Z,103617.20
2023-04-20T03:07:04.614Z,103625.60
2023-04-20T03:09:31.205Z,103624.20
2023-04-20T03:11:58.141Z,103625.80
2023-04-20T03:14:25.210Z,103624.80
2023-04-20T03:16:52.076Z,103622.80
2023-04-20T03:19:19.537Z,103624.20
2023-04-20T03:21:51.322Z,103628.00
2023-04-20T03:24:18.733Z,103626.80
2023-04-20T03:26:45.417Z,103625.60
2023-04-20T03:29:11.974Z,103626.20
2023-04-20T03:31:38.572Z,103624.00
2023-04-20T03:34:05.394Z,103623.40
2023-04-20T03:36:32.245Z,103627.20
2023-04-20T03:38:59.031Z,103627.60
2023-04-20T03:41:26.499Z,103627.60
2023-04-20T03:43:56.071Z,103623.40
2023-04-20T03:46:23.519Z,103624.40
2023-04-20T03:48:50.497Z,103621.00
2023-04-20T03:51:16.878Z,103620.00
2023-04-20T03:53:43.470Z,103627.60
2023-04-20T03:56:11.080Z,103620.40
2023-04-20T03:58:39.204Z,103622.80
2023-04-20T04:01:12.223Z,103621.00
2023-04-20T04:03:39.216Z,103621.60
2023-04-20T04:06:09.013Z,103623.60
2023-04-20T04:08:36.146Z,103623.20
2023-04-20T04:11:02.782Z,103619.20
2023-04-20T04:13:33.739Z,103617.80
2023-04-20T04:16:01.215Z,103616.20
2023-04-20T04:18:31.778Z,103614.20
2023-04-20T04:20:58.749Z,103615.40
2023-04-20T04:23:26.646Z,103620.80
2023-04-20T04:25:53.509Z,103620.60
2023-04-20T04:28:20.319Z,103617.00
2023-04-20T04:30:46.946Z,103616.60
2023-04-20T04:33:14.672Z,103619.20
2023-04-20T04:35:43.246Z,103617.40
2023-04-20T04:38:13.375Z,103619.40
2023-04-20T04:40:41.112Z,103622.60
2023-04-20T04:43:14.057Z,103618.40
2023-04-20T04:45:43.387Z,103623.40
2023-04-20T04:48:12.778Z,103626.20
2023-04-20T04:50:40.410Z,103622.60
2023-04-20T04:53:07.272Z,103622.00
2023-04-20T04:55:33.699Z,103626.80
2023-04-20T04:58:01.168Z,103621.80
2023-04-20T05:00:28.756Z,103620.40
2023-04-20T05:02:56.222Z,103623.80
2023-04-20T05:05:24.900Z,103624.00
2023-04-20T05:07:51.522Z,103626.00
2023-04-20T05:10:20.760Z,103620.40
2023-04-20T05:12:51.724Z,103629.80
2023-04-20T05:15:18.532Z,103625.00
2023-04-20T05:17:45.601Z,103623.20
2023-04-20T05:20:13.491Z,103627.40
2023-04-20T05:22:42.857Z,103625.80
2023-04-20T05:25:13.270Z,103623.80
2023-04-20T05:27:40.734Z,103628.00
2023-04-20T05:30:19.679Z,103621.60
2023-04-20T05:32:49.986Z,103621.20
2023-04-20T05:35:18.382Z,103617.00
2023-04-20T05:37:47.966Z,103621.00
2023-04-20T05:40:18.471Z,103618.40
2023-04-20T05:42:44.952Z,103620.20
2023-04-20T05:45:12.032Z,103619.60
2023-04-20T05:47:39.066Z,103617.40
2023-04-20T05:50:07.896Z,103609.60
2023-04-20T05:52:34.713Z,103611.40
2023-04-20T05:55:01.480Z,103608.80
2023-04-20T05:57:28.516Z,103612.40
2023-04-20T05:59:56.004Z,103611.60
2023-04-20T06:02:22.921Z,103612.40
2023-04-20T06:04:54.999Z,103611.00
2023-04-20T06:07:24.427Z,103614.40
2023-04-20T06:09:52.736Z,103609.80
2023-04-20T06:12:20.169Z,103610.00
2023-04-20T06:14:50.085Z,103608.20
2023-04-20T06:17:16.622Z,103612.40
2023-04-20T06:19:43.525Z,103619.60
2023-04-20T06:22:11.172Z,103616.00
2023-04-20T06:24:38.184Z,103621.60
2023-04-20T06:27:04.815Z,103621.20
2023-04-20T06:29:31.416Z,103624.00
2023-04-20T06:31:58.187Z,103625.00
2023-04-20T06:34:26.780Z,103626.20
2023-04-20T06:36:53.850Z,103626.80
2023-04-20T06:39:20.486Z,103625.40
2023-04-20T06:41:47.514Z,103623.20
2023-04-20T06:44:14.120Z,103627.00
2023-04-20T06:46:41.210Z,103624.20
2023-04-20T06:49:07.805Z,103625.20
2023-04-20T06:51:35.069Z,103619.00
2023-04-20T06:54:01.518Z,103617.00
2023-04-20T06:56:29.142Z,103620.40
2023-04-20T06:58:56.341Z,103621.40
2023-04-20T07:01:23.035Z,103622.60
2023-04-20T07:03:49.833Z,103619.20
2023-04-20T07:06:16.705Z,103623.40
2023-04-20T07:08:43.701Z,103621.20
2023-04-20T07:11:10.170Z,103619.00
2023-04-20T07:13:37.005Z,103616.00
2023-04-20T07:16:03.829Z,103617.20
2023-04-20T07:18:31.283Z,103609.40
2023-04-20T07:20:59.009Z,103611.40
2023-04-20T07:23:26.960Z,103605.80
2023-04-20T07:25:54.360Z,103608.40
2023-04-20T07:28:22.660Z,103602.80
2023-04-20T07:30:50.687Z,103603.40
2023-04-20T07:33:17.346Z,103604.80
2023-04-20T07:35:44.443Z,103609.80
2023-04-20T07:38:11.053Z,103605.20
2023-04-20T07:40:38.104Z,103609.20
2023-04-20T07:43:04.534Z,103609.80
2023-04-20T07:45:32.053Z,103604.80
2023-04-20T07:48:00.869Z,103599.00
2023-04-20T07:50:31.181Z,103596.40
2023-04-20T07:52:57.723Z,103596.80
2023-04-20T07:55:25.580Z,103597.20
2023-04-20T07:57:53.340Z,103594.60
2023-04-20T08:00:22.313Z,103595.60
2023-04-20T08:02:48.979Z,103593.00
2023-04-20T08:05:16.388Z,103590.40
2023-04-20T08:07:45.938Z,103591.60
2023-04-20T08:10:15.419Z,103589.20
2023-04-20T08:12:42.366Z,103586.60
2023-04-20T08:15:12.382Z,103587.60
2023-04-20T08:17:39.014Z,103587.60
2023-04-20T08:20:07.267Z,103586.80
2023-04-20T08:22:34.309Z,103584.80
2023-04-20T08:25:04.596Z,103580.80
2023-04-20T08:27:31.486Z,103576.00
2023-04-20T08:29:59.012Z,103571.80
2023-04-20T08:32:26.105Z,103574.00
2023-04-20T08:34:53.480Z,103577.80
2023-04-20T08:37:20.596Z,103576.80
2023-04-20T08:39:49.376Z,103572.40
2023-04-20T08:42:16.485Z,103572.00
2023-04-20T08:44:43.197Z,103571.80
2023-04-20T08:47:12.297Z,103571.80
2023-04-20T08:49:39.740Z,103569.20
2023-04-20T08:52:10.123Z,103571.20
2023-04-20T08:54:42.819Z,103566.00
2023-04-20T08:57:16.253Z,103567.60
2023-04-20T08:59:45.577Z,103567.00
2023-04-20T09:02:13.592Z,103567.40
2023-04-20T09:04:44.164Z,103568.00
2023-04-20T09:07:19.756Z,103568.00
2023-04-20T09:10:00.037Z,103557.80
2023-04-20T09:12:28.982Z,103559.40
2023-04-20T09:14:56.150Z,103555.60
2023-04-20T09:17:36.024Z,103553.20
2023-04-20T09:20:06.465Z,103551.00
2023-04-20T09:22:35.841Z,103546.40
2023-04-20T09:25:16.834Z,103546.40
2023-04-20T09:27:43.317Z,103548.00
2023-04-20T09:30:12.762Z,103548.60
2023-04-20T09:32:42.000Z,103550.40
2023-04-20T09:35:09.004Z,103553.80
2023-04-20T09:37:35.724Z,103549.80
2023-04-20T09:40:05.304Z,103553.80
2023-04-20T09:42:36.004Z,103557.00
2023-04-20T09:45:03.157Z,103546.00
2023-04-20T09:47:30.426Z,103547.20
2023-04-20T09:50:00.051Z,103545.80
2023-04-20T09:52:27.412Z,103546.40
2023-04-20T09:54:54.647Z,103539.80
2023-04-20T09:57:22.629Z,103544.80
2023-04-20T09:59:53.109Z,103537.00
2023-04-20T10:02:20.373Z,103546.00
2023-04-20T10:04:58.271Z,103547.20
2023-04-20T10:07:31.563Z,103541.80
2023-04-20T10:10:09.420Z,103535.80
2023-04-20T10:12:57.649Z,103538.40
2023-04-20T10:15:36.497Z,103536.80
2023-04-20T10:18:18.173Z,103535.00
2023-04-20T10:20:46.272Z,103532.20
2023-04-20T10:23:18.227Z,103518.20
2023-04-20T10:26:00.388Z,103516.20
2023-04-20T10:28:42.261Z,103526.40
2023-04-20T10:31:13.463Z,103520.80
2023-04-20T10:33:55.300Z,103515.20
2023-04-20T10:36:34.242Z,103505.40
2023-04-20T10:39:05.143Z,103501.40
2023-04-20T10:41:31.710Z,103501.80
2023-04-20T10:44:09.661Z,103497.80
2023-04-20T10:46:36.964Z,103494.00
2023-04-20T10:49:03.481Z,103492.60
2023-04-20T10:51:30.121Z,103485.60
2023-04-20T10:54:08.447Z,103484.40
2023-04-20T10:56:45.526Z,103484.20
2023-04-20T10:59:20.034Z,103482.20
2023-04-20T11:01:48.516Z,103478.20
2023-04-20T11:04:18.403Z,103473.20
2023-04-20T11:06:47.546Z,103470.20
2023-04-20T11:09:28.623Z,103463.80
2023-04-20T11:12:07.219Z,103460.40
2023-04-20T11:14:38.349Z,103456.80
2023-04-20T11:17:06.279Z,103459.60
2023-04-20T11:19:36.665Z,103457.60
2023-04-20T11:22:05.786Z,103456.00
2023-04-20T11:24:34.037Z,103453.80
2023-04-20T11:27:03.958Z,103451.20
2023-04-20T11:29:39.136Z,103452.40
2023-04-20T11:32:09.586Z,103445.60
2023-04-20T11:34:39.061Z,103446.00
2023-04-20T11:37:13.116Z,103447.40
2023-04-20T11:39:40.616Z,103442.60
2023-04-20T11:42:08.517Z,103439.00
2023-04-20T11:44:38.758Z,103441.40
2023-04-20T11:47:05.313Z,103439.60
2023-04-20T11:49:31.969Z,103442.60
2023-04-20T11:51:58.909Z,103441.80
2023-04-20T11:54:26.569Z,103442.60
2023-04-20T11:56:54.178Z,103439.00
2023-04-20T11:59:21.658Z,103434.20
2023-04-20T12:01:48.444Z,103431.20
2023-04-20T12:04:15.906Z,103430.00
2023-04-20T12:06:44.210Z,103427.80
2023-04-20T12:09:10.641Z,103426.60
2023-04-20T12:11:37.094Z,103421.40
2023-04-20T12:14:04.817Z,103420.80
2023-04-20T12:16:36.341Z,103418.60
2023-04-20T12:19:02.956Z,103418.20
2023-04-20T12:21:31.944Z,103413.20
2023-04-20T12:23:59.184Z,103406.20
2023-04-20T12:26:37.899Z,103408.20
2023-04-20T12:29:08.535Z,103405.20
2023-04-20T12:31:35.964Z,103404.00
2023-04-20T12:34:03.465Z,103400.20
2023-04-20T12:36:31.958Z,103400.60
2023-04-20T12:38:58.696Z,103407.00
2023-04-20T12:41:25.510Z,103401.40
2023-04-20T12:43:51.985Z,103396.00
2023-04-20T12:46:18.882Z,103391.80
2023-04-20T12:48:45.452Z,103391.60
2023-04-20T12:51:14.693Z,103389.60
2023-04-20T12:53:41.615Z,103391.60
2023-04-20T12:56:08.262Z,103383.80
2023-04-20T12:58:35.230Z,103383.20
2023-04-20T13:01:03.417Z,103378.60
2023-04-20T13:03:30.943Z,103373.60
2023-04-20T13:06:03.332Z,103374.20
2023-04-20T13:08:32.008Z,103373.20
2023-04-20T13:11:01.081Z,103368.80
2023-04-20T13:13:28.659Z,103364.40
2023-04-20T13:15:55.965Z,103369.00
2023-04-20T13:18:26.969Z,103370.00
2023-04-20T13:20:54.164Z,103366.20
2023-04-20T13:23:23.750Z,103360.60
2023-04-20T13:25:51.475Z,103361.20
2023-04-20T13:28:20.922Z,103356.40
2023-04-20T13:30:52.342Z,103350.00
2023-04-20T13:33:24.320Z,103345.20
2023-04-20T13:35:51.052Z,103343.80
2023-04-20T13:38:17.910Z,103345.00
2023-04-20T13:40:47.925Z,103338.80
2023-04-20T13:43:16.549Z,103336.60
2023-04-20T13:45:43.173Z,103337.40
2023-04-20T13:48:10.485Z,103334.40
2023-04-20T13:50:37.106Z,103334.40
2023-04-20T13:53:04.144Z,103331.40
2023-04-20T13:55:31.598Z,103330.40
2023-04-20T13:57:58.107Z,103327.60
2023-04-20T14:00:26.622Z,103323.20
2023-04-20T14:02:54.454Z,103328.40
2023-04-20T14:05:23.325Z,103320.80
2023-04-20T14:07:49.882Z,103320.60
2023-04-20T14:10:18.683Z,103320.80
2023-04-20T14:12:52.910Z,103316.40
2023-04-20T14:15:21.949Z,103321.40
2023-04-20T14:17:52.914Z,103315.00
2023-04-20T14:20:23.235Z,103315.40
2023-04-20T14:22:53.303Z,103317.00
2023-04-20T14:25:20.184Z,103319.20
2023-04-20T14:27:47.302Z,103314.40
2023-04-20T14:30:15.621Z,103313.20
2023-04-20T14:32:56.942Z,103311.40
2023-04-20T14:35:27.075Z,103309.20
2023-04-20T14:37:54.172Z,103305.00
2023-04-20T14:40:21.655Z,103301.40
2023-04-20T14:42:49.855Z,103299.60
2023-04-20T14:45:16.326Z,103301.40
2023-04-20T14:47:42.980Z,103294.60
2023-04-20T14:50:10.294Z,103294.60
2023-04-20T14:52:39.048Z,103292.60
2023-04-20T14:55:08.721Z,103287.40
2023-04-20T14:57:40.695Z,103289.00
2023-04-20T15:00:10.053Z,103287.20
2023-04-20T15:02:40.131Z,103282.60
2023-04-20T15:05:11.288Z,103280.00
2023-04-20T15:07:40.062Z,103279.40
2023-04-20T15:10:08.129Z,103279.00
2023-04-20T15:12:34.735Z,103270.20
2023-04-20T15:15:01.744Z,103272.20
2023-04-20T15:17:29.048Z,103271.80
2023-04-20T15:19:55.572Z,103273.60
2023-04-20T15:22:23.901Z,103271.40
2023-04-20T15:24:52.623Z,103270.20
2023-04-20T15:27:20.102Z,103272.00
2023-04-20T15:29:46.497Z,103269.80
2023-04-20T15:32:13.420Z,103266.40
2023-04-20T15:34:40.693Z,103258.80
2023-04-20T15:37:07.235Z,103256.80
2023-04-20T15:39:34.320Z,103259.40
2023-04-20T15:42:03.116Z,103255.80
2023-04-20T15:44:30.168Z,103246.00
2023-04-20T15:46:57.712Z,103250.40
2023-04-20T15:49:25.610Z,103246.00
2023-04-20T15:51:52.124Z,103247.20
2023-04-20T15:54:23.481Z,103243.60
2023-04-20T15:56:50.555Z,103242.60
2023-04-20T15:59:18.536Z,103241.40
2023-04-20T16:01:45.143Z,103240.80
2023-04-20T16:04:13.240Z,103245.20
2023-04-20T16:06:43.062Z,103238.20
2023-04-20T16:09:09.743Z,103237.20
2023-04-20T16:11:39.056Z,103230.20
2023-04-20T16:14:06.521Z,103230.20
2023-04-20T16:16:33.550Z,103230.00
2023-04-20T16:19:00.545Z,103230.40
2023-04-20T16:21:27.419Z,103232.20
2023-04-20T16:23:56.398Z,103227.00
2023-04-20T16:26:26.618Z,103225.80
2023-04-20T16:28:53.971Z,103229.00
2023-04-20T16:31:20.975Z,103225.40
2023-04-20T16:33:48.005Z,103220.60
2023-04-20T16:36:34.624Z,103212.60
2023-04-20T16:39:05.492Z,103203.40
2023-04-20T16:41:32.229Z,103192.40
2023-04-20T16:43:59.033Z,103186.40
2023-04-20T16:46:32.271Z,103177.20
2023-04-20T16:48:58.853Z,103171.20
2023-04-20T16:51:26.612Z,103171.00
2023-04-20T16:53:53.353Z,103171.00
2023-04-20T16:56:20.485Z,103168.60
2023-04-20T16:58:46.953Z,103167.80
2023-04-20T17:01:14.525Z,103165.80
2023-04-20T17:03:41.683Z,103165.40
2023-04-20T17:06:09.526Z,103162.00
2023-04-20T17:08:39.114Z,103154.40
2023-04-20T17:11:07.339Z,103152.40
2023-04-20T17:13:34.114Z,103148.40
2023-04-20T17:16:01.205Z,103152.40
2023-04-20T17:18:27.956Z,103154.40
2023-04-20T17:20:57.952Z,103156.60
2023-04-20T17:23:25.846Z,103158.00
2023-04-20T17:25:53.377Z,103147.80
2023-04-20T17:28:20.999Z,103141.00
2023-04-20T17:30:47.428Z,103134.80
2023-04-20T17:33:14.450Z,103136.60
2023-04-20T17:35:41.733Z,103132.20
2023-04-20T17:38:08.472Z,103125.40
2023-04-20T17:40:35.071Z,103128.00
2023-04-20T17:43:02.004Z,103130.80
2023-04-20T17:45:29.327Z,103131.20
2023-04-20T17:47:56.462Z,103125.40
2023-04-20T17:50:23.874Z,103127.80
2023-04-20T17:52:50.959Z,103123.20
2023-04-20T17:55:20.510Z,103118.00
2023-04-20T17:57:48.648Z,103117.20
2023-04-20T18:00:21.444Z,103113.00
2023-04-20T18:02:50.524Z,103114.60
2023-04-20T18:05:18.181Z,103110.20
2023-04-20T18:07:46.161Z,103106.40
2023-04-20T18:10:15.382Z,103104.40
2023-04-20T18:12:44.550Z,103106.20
2023-04-20T18:15:14.320Z,103106.20
2023-04-20T18:17:41.786Z,103102.00
2023-04-20T18:20:12.231Z,103107.00
2023-04-20T18:22:41.068Z,103108.60
2023-04-20T18:25:11.032Z,103104.00
2023-04-20T18:27:44.893Z,103109.00
2023-04-20T18:30:16.121Z,103104.60
2023-04-20T18:32:44.110Z,103102.60
2023-04-20T18:35:11.519Z,103102.20
2023-04-20T18:37:38.168Z,103104.00
2023-04-20T18:40:06.498Z,103100.80
2023-04-20T18:42:33.718Z,103098.80
2023-04-20T18:45:05.565Z,103100.00
2023-04-20T18:47:32.953Z,103097.20
2023-04-20T18:49:59.854Z,103102.80
2023-04-20T18:52:27.334Z,103096.40
2023-04-20T18:54:54.783Z,103092.80
2023-04-20T18:57:25.521Z,103092.80
2023-04-20T18:59:52.977Z,103092.00
2023-04-20T19:02:19.843Z,103096.40
2023-04-20T19:04:57.025Z,103093.40
2023-04-20T19:07:23.769Z,103096.60
2023-04-20T19:09:50.779Z,103093.40
2023-04-20T19:12:17.779Z,103094.60
2023-04-20T19:14:47.073Z,103089.60
2023-04-20T19:17:15.868Z,103091.60
2023-04-20T19:19:42.619Z,103090.80
2023-04-20T19:22:09.442Z,103089.60
2023-04-20T19:24:37.470Z,103087.20
2023-04-20T19:27:03.934Z,103090.40
2023-04-20T19:29:30.733Z,103087.00
2023-04-20T19:31:57.236Z,103087.80
2023-04-20T19:34:25.784Z,103094.40
2023-04-20T19:36:53.560Z,103089.40
2023-04-20T19:39:21.421Z,103088.00
2023-04-20T19:41:51.389Z,103090.20
2023-04-20T19:44:18.468Z,103088.00
2023-04-20T19:46:45.804Z,103089.60
2023-04-20T19:49:12.678Z,103089.60
2023-04-20T19:51:41.621Z,103093.40
2023-04-20T19:54:09.278Z,103089.60
2023-04-20T19:56:38.355Z,103096.80
2023-04-20T19:59:05.022Z,103098.20
2023-04-20T20:01:34.180Z,103098.40
2023-04-20T20:04:01.605Z,103098.20
2023-04-20T20:06:28.306Z,103100.20
2023-04-20T20:08:55.205Z,103102.80
2023-04-20T20:11:22.145Z,103099.20
2023-04-20T20:13:48.905Z,103101.80
2023-04-20T20:16:15.684Z,103098.60
2023-04-20T20:18:43.207Z,103095.60
2023-04-20T20:21:10.799Z,103096.80
2023-04-20T20:23:37.808Z,103101.00
2023-04-20T20:26:04.397Z,103099.40
2023-04-20T20:28:32.292Z,103102.00
2023-04-20T20:30:59.064Z,103101.40
2023-04-20T20:33:27.098Z,103105.80
2023-04-20T20:35:55.098Z,103102.80
2023-04-20T20:38:22.019Z,103106.60
2023-04-20T20:40:52.810Z,103101.80
2023-04-20T20:43:22.415Z,103103.60
2023-04-20T20:45:51.574Z,103104.80
2023-04-20T20:48:19.286Z,103108.20
2023-04-20T20:50:46.131Z,103102.00
2023-04-20T20:53:13.229Z,103104.00
2023-04-20T20:55:39.885Z,103100.80
2023-04-20T20:58:06.618Z,103105.80
2023-04-20T21:00:33.906Z,103107.80
2023-04-20T21:03:03.130Z,103109.20
2023-04-20T21:05:30.380Z,103105.60
2023-04-20T21:07:56.961Z,103111.00
2023-04-20T21:10:23.585Z,103109.60
2023-04-20T21:12:53.040Z,103107.00
2023-04-20T21:15:20.418Z,103108.20
2023-04-20T21:17:47.075Z,103106.60
2023-04-20T21:20:13.802Z,103109.40
2023-04-20T21:22:40.831Z,103106.20
2023-04-20T21:25:09.460Z,103110.40
2023-04-20T21:27:36.165Z,103110.80
2023-04-20T21:30:04.602Z,103115.20
2023-04-20T21:32:32.748Z,103115.00
2023-04-20T21:34:59.600Z,103112.60
2023-04-20T21:37:26.845Z,103110.20
2023-04-20T21:39:54.229Z,103111.60
2023-04-20T21:42:20.790Z,103110.40
2023-04-20T21:44:48.175Z,103112.20
2023-04-20T21:47:14.696Z,103114.80
2023-04-20T21:49:43.429Z,103113.40
2023-04-20T21:52:10.402Z,103114.60
2023-04-20T21:54:37.539Z,103114.60
2023-04-20T21:57:04.066Z,103117.00
2023-04-20T21:59:31.854Z,103112.40
2023-04-20T22:01:59.578Z,103107.40
2023-04-20T22:04:29.313Z,103108.80
2023-04-20T22:06:57.111Z,103107.20
2023-04-20T22:09:24.720Z,103107.20
2023-04-20T22:11:53.049Z,103113.20
2023-04-20T22:14:19.541Z,103113.20
2023-04-20T22:16:46.349Z,103115.60
2023-04-20T22:19:13.142Z,103117.00
2023-04-20T22:21:42.408Z,103114.80
2023-04-20T22:24:09.074Z,103124.20
2023-04-20T22:26:35.708Z,103125.40
2023-04-20T22:29:02.621Z,103125.20
2023-04-20T22:31:29.614Z,103123.20
2023-04-20T22:33:56.565Z,103125.40
2023-04-20T22:36:26.020Z,103126.40
2023-04-20T22:38:52.812Z,103126.80
2023-04-20T22:41:19.844Z,103128.00
2023-04-20T22:43:46.488Z,103130.60
2023-04-20T22:46:13.315Z,103125.20
2023-04-20T22:48:41.062Z,103128.00
2023-04-20T22:51:08.113Z,103133.00
2023-04-20T22:53:38.350Z,103130.80
2023-04-20T22:56:07.183Z,103124.00
2023-04-20T22:58:34.529Z,103127.20
2023-04-20T23:01:02.221Z,103126.40
2023-04-20T23:03:29.303Z,103129.20
2023-04-20T23:05:57.042Z,103131.60
2023-04-20T23:08:25.137Z,103129.00
2023-04-20T23:10:55.764Z,103128.40
2023-04-20T23:13:25.668Z,103131.80
2023-04-20T23:15:52.699Z,103129.40
2023-04-20T23:18:21.113Z,103133.00
2023-04-20T23:20:48.728Z,103130.80
2023-04-20T23:23:16.548Z,103133.20
2023-04-20T23:25:44.265Z,103132.80
2023-04-20T23:28:11.233Z,103130.60
2023-04-20T23:30:37.787Z,103129.60
2023-04-20T23:33:04.328Z,103134.60
2023-04-20T23:35:30.818Z,103132.00
2023-04-20T23:37:57.433Z,103137.60
2023-04-20T23:40:24.817Z,103136.60
2023-04-20T23:42:51.396Z,103138.00
2023-04-20T23:45:19.155Z,103135.80
2023-04-20T23:47:45.860Z,103131.40
2023-04-20T23:50:12.528Z,103132.20
2023-04-20T23:52:40.569Z,103131.00
2023-04-20T23:55:10.718Z,103136.60
2023-04-20T23:57:37.358Z,103126.40
